createdAt,value
2023-05-13T00:04:51.904Z,15.12
2023-05-13T00:09:53.284Z,15.06
2023-05-13T00:14:54.732Z,14.99
2023-05-13T00:19:56.113Z,14.93
2023-05-13T00:24:57.565Z,14.97
2023-05-13T00:29:59.906Z,15.00
2023-05-13T00:35:01.576Z,14.74
2023-05-13T00:40:03.741Z,14.75
2023-05-13T00:45:06.409Z,14.87
2023-05-13T00:50:09.559Z,14.91
2023-05-13T00:55:11.248Z,14.93
2023-05-13T01:00:14.434Z,14.94
2023-05-13T01:05:43.052Z,14.83
2023-05-13T01:10:57.525Z,14.95
2023-05-13T01:16:04.306Z,14.94
2023-05-13T01:21:07.759Z,14.89
2023-05-13T01:26:09.220Z,14.94
2023-05-13T01:31:11.290Z,14.97
2023-05-13T01:36:13.837Z,14.84
2023-05-13T01:41:15.452Z,14.91
2023-05-13T01:46:17.072Z,14.78
2023-05-13T01:51:18.745Z,14.76
2023-05-13T01:56:21.243Z,14.80
2023-05-13T02:01:23.065Z,14.84
2023-05-13T02:06:24.847Z,14.77
2023-05-13T02:11:26.221Z,14.73
2023-05-13T02:16:27.662Z,14.77
2023-05-13T02:21:29.875Z,14.76
2023-05-13T02:26:31.427Z,14.77
2023-05-13T02:31:33.091Z,14.64
2023-05-13T02:36:34.493Z,14.72
2023-05-13T02:41:37.276Z,14.60
2023-05-13T02:46:38.671Z,14.61
2023-05-13T02:51:40.037Z,14.59
2023-05-13T02:56:41.580Z,14.58
2023-05-13T03:01:43.103Z,14.52
2023-05-13T03:06:44.863Z,14.50
2023-05-13T03:11:46.569Z,14.42
2023-05-13T03:16:47.954Z,14.33
2023-05-13T03:21:49.708Z,14.41
2023-05-13T03:26:51.290Z,14.33
2023-05-13T03:31:53.755Z,14.38
2023-05-13T03:36:55.238Z,14.38
2023-05-13T03:41:56.610Z,14.30
2023-05-13T03:46:58.228Z,14.29
2023-05-13T03:51:59.647Z,14.26
2023-05-13T03:57:01.219Z,14.18
2023-05-13T04:02:05.084Z,14.24
2023-05-13T04:07:06.507Z,14.14
2023-05-13T04:12:08.196Z,14.19
2023-05-13T04:17:09.835Z,14.13
2023-05-13T04:22:11.526Z,14.13
2023-05-13T04:27:13.113Z,14.21
2023-05-13T04:32:17.907Z,14.09
2023-05-13T04:37:19.509Z,14.25
2023-05-13T04:42:20.943Z,14.28
2023-05-13T04:47:22.860Z,14.28
2023-05-13T04:52:24.389Z,14.27
2023-05-13T04:57:25.804Z,14.23
2023-05-13T05:02:30.188Z,14.31
2023-05-13T05:07:34.361Z,14.39
2023-05-13T05:12:36.676Z,14.40
2023-05-13T05:17:38.397Z,14.49
2023-05-13T05:22:41.870Z,14.52
2023-05-13T05:27:43.291Z,14.41
2023-05-13T05:32:44.808Z,14.52
2023-05-13T05:37:46.595Z,14.68
2023-05-13T05:42:48.039Z,14.58
2023-05-13T05:47:50.432Z,14.70
2023-05-13T05:52:52.119Z,14.77
2023-05-13T05:57:53.443Z,14.98
2023-05-13T06:02:55.151Z,15.08
2023-05-13T06:07:56.744Z,15.11
2023-05-13T06:12:58.784Z,15.24
2023-05-13T06:18:00.260Z,15.33
2023-05-13T06:23:01.685Z,15.49
2023-05-13T06:28:03.588Z,15.24
2023-05-13T06:33:05.560Z,15.56
2023-05-13T06:38:07.325Z,15.76
2023-05-13T06:43:08.951Z,15.76
2023-05-13T06:48:10.579Z,15.81
2023-05-13T06:53:12.749Z,15.84
2023-05-13T06:58:14.344Z,16.00
2023-05-13T07:03:16.445Z,16.05
2023-05-13T07:08:19.279Z,15.83
2023-05-13T07:13:21.047Z,16.12
2023-05-13T07:18:22.568Z,16.30
2023-05-13T07:23:25.358Z,16.49
2023-05-13T07:28:27.110Z,16.79
2023-05-13T07:33:28.574Z,16.80
2023-05-13T07:38:29.963Z,16.86
2023-05-13T07:43:35.156Z,16.95
2023-05-13T07:48:36.814Z,17.03
2023-05-13T07:53:38.452Z,17.01
2023-05-13T07:58:39.847Z,17.06
2023-05-13T08:03:41.375Z,17.10
2023-05-13T08:08:42.854Z,17.34
2023-05-13T08:13:44.426Z,17.42
2023-05-13T08:18:45.824Z,17.71
2023-05-13T08:23:47.496Z,17.94
2023-05-13T08:28:52.192Z,18.14
2023-05-13T08:33:56.076Z,18.37
2023-05-13T08:38:57.518Z,18.57
2023-05-13T08:44:00.357Z,18.82
2023-05-13T08:49:02.464Z,19.15
2023-05-13T08:54:04.696Z,19.29
2023-05-13T08:59:06.167Z,19.47
2023-05-13T09:04:09.811Z,19.55
2023-05-13T09:09:11.097Z,19.68
2023-05-13T09:14:13.677Z,19.94
2023-05-13T09:19:15.393Z,20.04
2023-05-13T09:24:21.616Z,20.21
2023-05-13T09:29:24.401Z,20.43
2023-05-13T09:34:30.977Z,20.73
2023-05-13T09:39:37.976Z,20.96
2023-05-13T09:44:39.358Z,21.04
2023-05-13T09:49:41.890Z,21.37
2023-05-13T09:54:44.335Z,21.60
2023-05-13T09:59:45.676Z,21.79
2023-05-13T10:04:47.208Z,21.85
2023-05-13T10:09:48.570Z,22.10
2023-05-13T10:14:51.958Z,22.19
2023-05-13T10:19:54.832Z,22.23
2023-05-13T10:25:00.213Z,22.58
2023-05-13T10:30:04.035Z,23.09
2023-05-13T10:35:14.906Z,22.82
2023-05-13T10:40:44.602Z,22.90
2023-05-13T10:45:58.165Z,23.33
2023-05-13T10:51:07.867Z,23.29
2023-05-13T10:56:09.170Z,23.30
2023-05-13T11:01:28.153Z,23.37
2023-05-13T11:06:34.318Z,23.07
2023-05-13T11:11:37.023Z,22.53
2023-05-13T11:16:38.582Z,22.27
2023-05-13T11:21:40.756Z,21.98
2023-05-13T11:26:48.083Z,21.97
2023-05-13T11:31:57.813Z,21.87
2023-05-13T11:37:04.044Z,21.62
2023-05-13T11:42:08.689Z,21.56
2023-05-13T11:47:10.080Z,21.61
2023-05-13T11:52:15.620Z,21.88
2023-05-13T11:57:36.929Z,21.75
2023-05-13T12:02:40.420Z,21.70
2023-05-13T12:07:43.084Z,21.60
2023-05-13T12:12:45.882Z,21.41
2023-05-13T12:17:48.326Z,21.24
2023-05-13T12:22:52.358Z,21.42
2023-05-13T12:27:53.823Z,21.52
2023-05-13T12:32:58.817Z,21.39
2023-05-13T12:38:05.085Z,21.31
2023-05-13T12:43:06.465Z,21.04
2023-05-13T12:48:08.160Z,20.91
2023-05-13T12:53:09.721Z,20.61
2023-05-13T12:58:11.234Z,20.48
2023-05-13T13:03:12.764Z,20.51
2023-05-13T13:08:14.142Z,20.31
2023-05-13T13:13:15.814Z,20.74
2023-05-13T13:18:18.246Z,20.92
2023-05-13T13:23:20.320Z,21.07
2023-05-13T13:28:21.623Z,20.92
2023-05-13T13:33:23.142Z,20.70
2023-05-13T13:38:24.566Z,20.64
2023-05-13T13:43:25.939Z,20.38
2023-05-13T13:48:27.407Z,20.32
2023-05-13T13:53:28.818Z,20.24
2023-05-13T13:58:30.152Z,20.43
2023-05-13T14:03:31.733Z,20.35
2023-05-13T14:08:33.199Z,20.40
2023-05-13T14:13:34.573Z,20.51
2023-05-13T14:18:35.896Z,20.50
2023-05-13T14:23:38.385Z,20.57
2023-05-13T14:28:39.670Z,20.48
2023-05-13T14:33:41.139Z,20.44
2023-05-13T14:38:43.570Z,20.56
2023-05-13T14:43:48.376Z,20.30
2023-05-13T14:48:49.758Z,20.58
2023-05-13T14:53:51.550Z,20.52
2023-05-13T14:58:53.248Z,20.59
2023-05-13T15:03:54.564Z,20.65
2023-05-13T15:08:56.368Z,20.65
2023-05-13T15:13:57.825Z,20.69
2023-05-13T15:18:59.170Z,20.80
2023-05-13T15:24:00.580Z,20.87
2023-05-13T15:29:02.013Z,20.76
2023-05-13T15:34:03.426Z,20.72
2023-05-13T15:39:04.906Z,20.89
2023-05-13T15:44:06.243Z,20.82
2023-05-13T15:49:07.574Z,20.90
2023-05-13T15:54:08.908Z,20.87
2023-05-13T15:59:10.317Z,20.90
2023-05-13T16:04:11.704Z,20.87
2023-05-13T16:09:13.262Z,20.94
2023-05-13T16:14:14.615Z,20.68
2023-05-13T16:19:15.958Z,20.78
2023-05-13T16:24:17.277Z,20.61
2023-05-13T16:29:18.647Z,20.59
2023-05-13T16:34:19.956Z,20.52
2023-05-13T16:39:21.246Z,20.52
2023-05-13T16:44:22.621Z,20.52
2023-05-13T16:49:24.540Z,20.54
2023-05-13T16:54:26.072Z,20.58
2023-05-13T16:59:28.217Z,20.51
2023-05-13T17:04:29.660Z,20.55
2023-05-13T17:09:31.082Z,20.54
2023-05-13T17:14:32.415Z,20.55
2023-05-13T17:19:33.940Z,20.48
2023-05-13T17:24:35.845Z,20.40
2023-05-13T17:29:37.386Z,20.33
2023-05-13T17:34:38.809Z,20.39
2023-05-13T17:39:40.186Z,20.33
2023-05-13T17:44:41.614Z,20.28
2023-05-13T17:49:42.931Z,20.13
2023-05-13T17:54:44.227Z,20.13
2023-05-13T17:59:45.598Z,19.98
2023-05-13T18:04:46.948Z,19.87
2023-05-13T18:09:49.930Z,19.46
2023-05-13T18:14:52.016Z,19.64
2023-05-13T18:19:53.309Z,19.65
2023-05-13T18:24:54.658Z,19.58
2023-05-13T18:29:56.034Z,19.33
2023-05-13T18:34:57.496Z,19.37
2023-05-13T18:39:59.275Z,19.32
2023-05-13T18:45:00.656Z,19.29
2023-05-13T18:50:01.978Z,19.18
2023-05-13T18:55:05.004Z,19.19
2023-05-13T19:00:07.099Z,19.19
2023-05-13T19:05:08.630Z,19.13
2023-05-13T19:10:10.145Z,18.94
2023-05-13T19:15:11.631Z,18.93
2023-05-13T19:20:13.285Z,18.98
2023-05-13T19:25:14.670Z,18.86
2023-05-13T19:30:16.141Z,18.79
2023-05-13T19:35:17.578Z,18.66
2023-05-13T19:40:18.990Z,18.52
2023-05-13T19:45:20.829Z,18.54
2023-05-13T19:50:22.415Z,18.42
2023-05-13T19:55:24.373Z,18.25
2023-05-13T20:00:25.880Z,18.25
2023-05-13T20:05:27.366Z,18.21
2023-05-13T20:10:29.097Z,17.94
2023-05-13T20:15:31.282Z,18.13
2023-05-13T20:20:32.608Z,18.08
2023-05-13T20:25:33.908Z,18.15
2023-05-13T20:30:35.430Z,18.04
2023-05-13T20:35:39.921Z,17.94
2023-05-13T20:40:41.291Z,17.97
2023-05-13T20:45:43.113Z,17.89
2023-05-13T20:50:44.656Z,17.77
2023-05-13T20:55:46.016Z,17.70
2023-05-13T21:00:47.476Z,17.72
2023-05-13T21:05:48.850Z,17.79
2023-05-13T21:10:50.199Z,17.73
2023-05-13T21:15:51.889Z,17.68
2023-05-13T21:20:53.369Z,17.72
2023-05-13T21:25:54.772Z,17.59
2023-05-13T21:30:56.089Z,17.60
2023-05-13T21:35:57.456Z,17.53
2023-05-13T21:40:59.301Z,17.49
2023-05-13T21:46:00.653Z,17.43
2023-05-13T21:51:02.083Z,17.30
2023-05-13T21:56:03.918Z,17.25
2023-05-13T22:01:05.318Z,17.04
2023-05-13T22:06:06.842Z,17.26
2023-05-13T22:11:08.182Z,17.16
2023-05-13T22:16:09.628Z,17.23
2023-05-13T22:21:11.094Z,17.21
2023-05-13T22:26:12.453Z,17.09
2023-05-13T22:31:14.969Z,17.13
2023-05-13T22:36:16.289Z,17.18
2023-05-13T22:41:20.623Z,17.16
2023-05-13T22:46:22.022Z,17.14
2023-05-13T22:51:23.394Z,17.09
2023-05-13T22:56:24.883Z,16.94
2023-05-13T23:01:26.283Z,16.94
2023-05-13T23:06:27.712Z,16.82
2023-05-13T23:11:28.976Z,16.75
2023-05-13T23:16:30.399Z,16.65
2023-05-13T23:21:32.298Z,16.70
2023-05-13T23:26:33.661Z,16.54
2023-05-13T23:31:35.219Z,16.54
2023-05-13T23:36:36.580Z,16.40
2023-05-13T23:41:38.002Z,16.30
2023-05-13T23:46:39.410Z,16.24
2023-05-13T23:51:40.827Z,16.25
2023-05-13T23:56:42.194Z,16.09
